Main page
METAR-TAF:

METAR-TAF

Airports :

León Airport

León, Spain

latitude: 42-35N, longitude: 005-39W, elevation: 926 m

Current weather observation

The report was made 57 minutes ago, at 00:30 UTC
Calm wind
Temperature 0°C
Humidity 93%
Pressure 1028 hPa
Visibility 10 km or more
no clouds below 1500 m and no cumulonimbus

METAR: LELN 210030Z AUTO 00000KT CAVOK 00/M01 Q1028

Time: 02:27 (01:27 UTC)

Forecast

The report was made 5 hours and 27 minutes ago, at 20:00 UTC
Forecast valid from 20 at 21 UTC to 21 at 21 UTC
Wind 4 kt from variable directions
Visibility 10 km or more
no clouds below 1500 m and no cumulonimbus

TAF: LELN 202000Z 2021/2121 VRB04KT CAVOK TX13/2115Z TN00/2106Z

Weather observations and forecasts of more than 4000 airports (METAR and TAF reports).

The available stations are represented by yellow and red dots on the map.

Hover mouse over dot to see the name of the station.

Then click to see weather observations and forecasts.

To change the map : click on the green buttons with a black cross to zoom in, on the green button with a dash to zoom out, or on the green arrows for adjacent maps.


METAR-TAF: